sensor_id;sensor_type;location;lat;lon;timestamp;P1;durP1;ratioP1;P2;durP2;ratioP2
45232;SDS011;30969;51.052;17.056;2023-04-23T00:01:28;32.45;;;21.25;;
45232;SDS011;30969;51.052;17.056;2023-04-23T00:06:35;31.63;;;21.38;;
45232;SDS011;30969;51.052;17.056;2023-04-23T00:11:41;30.60;;;19.60;;
45232;SDS011;30969;51.052;17.056;2023-04-23T00:16:45;31.80;;;19.95;;
45232;SDS011;30969;51.052;17.056;2023-04-23T00:21:49;33.40;;;21.30;;
45232;SDS011;30969;51.052;17.056;2023-04-23T00:26:54;34.67;;;22.02;;
45232;SDS011;30969;51.052;17.056;2023-04-23T00:31:58;29.92;;;20.15;;
45232;SDS011;30969;51.052;17.056;2023-04-23T00:37:01;31.25;;;20.60;;
45232;SDS011;30969;51.052;17.056;2023-04-23T00:42:09;36.72;;;21.27;;
45232;SDS011;30969;51.052;17.056;2023-04-23T00:47:13;29.95;;;20.85;;
45232;SDS011;30969;51.052;17.056;2023-04-23T00:52:17;33.95;;;19.77;;
45232;SDS011;30969;51.052;17.056;2023-04-23T00:57:22;31.92;;;20.25;;
45232;SDS011;30969;51.052;17.056;2023-04-23T01:02:26;30.08;;;20.00;;
45232;SDS011;30969;51.052;17.056;2023-04-23T01:07:33;29.92;;;20.25;;
45232;SDS011;30969;51.052;17.056;2023-04-23T01:12:38;30.75;;;20.05;;
45232;SDS011;30969;51.052;17.056;2023-04-23T01:17:42;35.30;;;21.27;;
45232;SDS011;30969;51.052;17.056;2023-04-23T01:22:47;28.45;;;19.83;;
45232;SDS011;30969;51.052;17.056;2023-04-23T01:27:50;27.05;;;18.60;;
45232;SDS011;30969;51.052;17.056;2023-04-23T01:32:54;28.08;;;19.65;;
45232;SDS011;30969;51.052;17.056;2023-04-23T01:38:00;31.40;;;20.23;;
45232;SDS011;30969;51.052;17.056;2023-04-23T01:43:05;28.67;;;18.65;;
45232;SDS011;30969;51.052;17.056;2023-04-23T01:48:09;26.60;;;17.90;;
45232;SDS011;30969;51.052;17.056;2023-04-23T01:53:14;29.85;;;20.63;;
45232;SDS011;30969;51.052;17.056;2023-04-23T01:58:17;29.67;;;19.15;;
45232;SDS011;30969;51.052;17.056;2023-04-23T02:03:21;24.70;;;16.95;;
45232;SDS011;30969;51.052;17.056;2023-04-23T02:08:27;28.13;;;18.27;;
45232;SDS011;30969;51.052;17.056;2023-04-23T02:13:30;26.73;;;18.30;;
45232;SDS011;30969;51.052;17.056;2023-04-23T02:18:34;30.98;;;16.95;;
45232;SDS011;30969;51.052;17.056;2023-04-23T02:23:39;31.60;;;17.52;;
45232;SDS011;30969;51.052;17.056;2023-04-23T02:28:43;28.65;;;18.58;;
45232;SDS011;30969;51.052;17.056;2023-04-23T02:33:46;27.40;;;17.20;;
45232;SDS011;30969;51.052;17.056;2023-04-23T02:38:51;27.42;;;17.40;;
45232;SDS011;30969;51.052;17.056;2023-04-23T02:43:54;24.10;;;16.70;;
45232;SDS011;30969;51.052;17.056;2023-04-23T02:48:58;24.85;;;16.92;;
45232;SDS011;30969;51.052;17.056;2023-04-23T02:54:03;24.95;;;18.13;;
45232;SDS011;30969;51.052;17.056;2023-04-23T02:59:06;28.27;;;16.55;;
45232;SDS011;30969;51.052;17.056;2023-04-23T03:04:10;24.90;;;16.23;;
45232;SDS011;30969;51.052;17.056;2023-04-23T03:09:15;27.25;;;17.27;;
45232;SDS011;30969;51.052;17.056;2023-04-23T03:14:18;29.58;;;17.25;;
45232;SDS011;30969;51.052;17.056;2023-04-23T03:19:22;25.45;;;16.67;;
45232;SDS011;30969;51.052;17.056;2023-04-23T03:24:27;27.75;;;17.50;;
45232;SDS011;30969;51.052;17.056;2023-04-23T03:29:32;25.27;;;16.52;;
45232;SDS011;30969;51.052;17.056;2023-04-23T03:34:36;27.55;;;17.38;;
45232;SDS011;30969;51.052;17.056;2023-04-23T03:39:41;24.73;;;15.35;;
45232;SDS011;30969;51.052;17.056;2023-04-23T03:44:45;24.70;;;16.25;;
45232;SDS011;30969;51.052;17.056;2023-04-23T03:49:49;25.17;;;16.10;;
45232;SDS011;30969;51.052;17.056;2023-04-23T03:54:54;24.08;;;16.30;;
45232;SDS011;30969;51.052;17.056;2023-04-23T03:59:58;25.73;;;16.80;;
45232;SDS011;30969;51.052;17.056;2023-04-23T04:05:01;28.27;;;16.55;;
45232;SDS011;30969;51.052;17.056;2023-04-23T04:10:07;24.33;;;16.70;;
45232;SDS011;30969;51.052;17.056;2023-04-23T04:15:11;27.20;;;15.70;;
45232;SDS011;30969;51.052;17.056;2023-04-23T04:20:14;25.45;;;15.52;;
45232;SDS011;30969;51.052;17.056;2023-04-23T04:25:19;30.10;;;16.17;;
45232;SDS011;30969;51.052;17.056;2023-04-23T04:30:25;24.02;;;15.30;;
45232;SDS011;30969;51.052;17.056;2023-04-23T04:35:28;24.77;;;15.90;;
45232;SDS011;30969;51.052;17.056;2023-04-23T04:40:33;22.40;;;15.13;;
45232;SDS011;30969;51.052;17.056;2023-04-23T04:45:37;22.48;;;15.00;;
45232;SDS011;30969;51.052;17.056;2023-04-23T04:50:40;24.02;;;15.68;;
45232;SDS011;30969;51.052;17.056;2023-04-23T04:55:46;20.85;;;15.55;;
45232;SDS011;30969;51.052;17.056;2023-04-23T05:00:50;20.98;;;14.77;;
45232;SDS011;30969;51.052;17.056;2023-04-23T05:05:53;25.35;;;14.65;;
45232;SDS011;30969;51.052;17.056;2023-04-23T05:11:00;21.80;;;15.23;;
45232;SDS011;30969;51.052;17.056;2023-04-23T05:16:04;26.45;;;15.13;;
45232;SDS011;30969;51.052;17.056;2023-04-23T05:21:08;22.08;;;15.18;;
45232;SDS011;30969;51.052;17.056;2023-04-23T05:26:13;22.48;;;14.93;;
45232;SDS011;30969;51.052;17.056;2023-04-23T05:31:16;20.08;;;14.60;;
45232;SDS011;30969;51.052;17.056;2023-04-23T05:36:19;19.05;;;13.18;;
45232;SDS011;30969;51.052;17.056;2023-04-23T05:41:24;20.33;;;13.60;;
45232;SDS011;30969;51.052;17.056;2023-04-23T05:46:28;20.75;;;13.75;;
45232;SDS011;30969;51.052;17.056;2023-04-23T05:51:32;18.00;;;12.88;;
45232;SDS011;30969;51.052;17.056;2023-04-23T05:56:36;21.58;;;13.75;;
45232;SDS011;30969;51.052;17.056;2023-04-23T06:01:40;17.80;;;13.23;;
45232;SDS011;30969;51.052;17.056;2023-04-23T06:06:44;17.83;;;13.38;;
45232;SDS011;30969;51.052;17.056;2023-04-23T06:11:49;20.10;;;13.18;;
45232;SDS011;30969;51.052;17.056;2023-04-23T06:16:54;19.35;;;12.85;;
45232;SDS011;30969;51.052;17.056;2023-04-23T06:21:57;24.13;;;14.90;;
45232;SDS011;30969;51.052;17.056;2023-04-23T06:27:02;26.50;;;16.75;;
45232;SDS011;30969;51.052;17.056;2023-04-23T06:32:06;22.27;;;16.23;;
45232;SDS011;30969;51.052;17.056;2023-04-23T06:37:09;20.63;;;14.07;;
45232;SDS011;30969;51.052;17.056;2023-04-23T06:42:14;20.83;;;13.88;;
45232;SDS011;30969;51.052;17.056;2023-04-23T06:47:18;19.83;;;13.63;;
45232;SDS011;30969;51.052;17.056;2023-04-23T06:52:23;18.45;;;13.63;;
45232;SDS011;30969;51.052;17.056;2023-04-23T06:57:28;21.08;;;12.75;;
45232;SDS011;30969;51.052;17.056;2023-04-23T07:02:32;18.40;;;11.05;;
45232;SDS011;30969;51.052;17.056;2023-04-23T07:07:35;18.20;;;12.40;;
45232;SDS011;30969;51.052;17.056;2023-04-23T07:12:40;16.52;;;11.18;;
45232;SDS011;30969;51.052;17.056;2023-04-23T07:17:44;17.85;;;12.27;;
45232;SDS011;30969;51.052;17.056;2023-04-23T07:22:47;19.23;;;10.65;;
45232;SDS011;30969;51.052;17.056;2023-04-23T07:27:52;14.27;;;10.73;;
45232;SDS011;30969;51.052;17.056;2023-04-23T07:32:56;13.38;;;9.25;;
45232;SDS011;30969;51.052;17.056;2023-04-23T07:37:59;20.83;;;9.93;;
45232;SDS011;30969;51.052;17.056;2023-04-23T07:43:04;15.95;;;9.95;;
45232;SDS011;30969;51.052;17.056;2023-04-23T07:48:08;13.95;;;8.10;;
45232;SDS011;30969;51.052;17.056;2023-04-23T07:53:12;12.23;;;7.55;;
45232;SDS011;30969;51.052;17.056;2023-04-23T07:58:17;10.35;;;6.88;;
45232;SDS011;30969;51.052;17.056;2023-04-23T08:03:20;15.93;;;7.10;;
45232;SDS011;30969;51.052;17.056;2023-04-23T08:08:24;13.43;;;7.70;;
45232;SDS011;30969;51.052;17.056;2023-04-23T08:13:29;16.60;;;6.53;;
45232;SDS011;30969;51.052;17.056;2023-04-23T08:18:32;7.70;;;6.07;;
45232;SDS011;30969;51.052;17.056;2023-04-23T08:23:36;12.15;;;6.22;;
45232;SDS011;30969;51.052;17.056;2023-04-23T08:28:42;11.07;;;5.57;;
45232;SDS011;30969;51.052;17.056;2023-04-23T08:33:45;11.63;;;5.45;;
45232;SDS011;30969;51.052;17.056;2023-04-23T08:38:48;9.43;;;6.15;;
45232;SDS011;30969;51.052;17.056;2023-04-23T08:43:55;10.40;;;5.00;;
45232;SDS011;30969;51.052;17.056;2023-04-23T08:49:06;7.57;;;4.47;;
45232;SDS011;30969;51.052;17.056;2023-04-23T08:54:12;8.48;;;4.47;;
45232;SDS011;30969;51.052;17.056;2023-04-23T08:59:21;7.63;;;4.82;;
45232;SDS011;30969;51.052;17.056;2023-04-23T09:04:25;6.28;;;4.28;;
45232;SDS011;30969;51.052;17.056;2023-04-23T09:09:29;7.15;;;4.20;;
45232;SDS011;30969;51.052;17.056;2023-04-23T09:14:35;7.55;;;4.18;;
45232;SDS011;30969;51.052;17.056;2023-04-23T09:19:39;9.52;;;4.20;;
45232;SDS011;30969;51.052;17.056;2023-04-23T09:24:44;5.70;;;3.65;;
45232;SDS011;30969;51.052;17.056;2023-04-23T09:29:49;9.48;;;3.90;;
45232;SDS011;30969;51.052;17.056;2023-04-23T09:34:56;5.88;;;3.65;;
45232;SDS011;30969;51.052;17.056;2023-04-23T09:40:00;5.80;;;3.53;;
45232;SDS011;30969;51.052;17.056;2023-04-23T09:45:07;5.47;;;3.20;;
45232;SDS011;30969;51.052;17.056;2023-04-23T09:50:14;6.75;;;4.03;;
45232;SDS011;30969;51.052;17.056;2023-04-23T09:55:25;7.57;;;4.75;;
45232;SDS011;30969;51.052;17.056;2023-04-23T10:00:33;13.70;;;4.53;;
45232;SDS011;30969;51.052;17.056;2023-04-23T10:05:38;5.90;;;3.78;;
45232;SDS011;30969;51.052;17.056;2023-04-23T10:10:45;7.55;;;4.13;;
45232;SDS011;30969;51.052;17.056;2023-04-23T10:16:08;6.50;;;4.35;;
45232;SDS011;30969;51.052;17.056;2023-04-23T10:21:23;5.18;;;3.17;;
45232;SDS011;30969;51.052;17.056;2023-04-23T10:26:37;8.88;;;4.45;;
45232;SDS011;30969;51.052;17.056;2023-04-23T10:31:45;6.80;;;4.82;;
45232;SDS011;30969;51.052;17.056;2023-04-23T10:36:50;8.40;;;3.45;;
45232;SDS011;30969;51.052;17.056;2023-04-23T10:41:54;7.10;;;3.75;;
45232;SDS011;30969;51.052;17.056;2023-04-23T10:47:00;6.03;;;3.83;;
45232;SDS011;30969;51.052;17.056;2023-04-23T10:52:07;8.32;;;4.03;;
45232;SDS011;30969;51.052;17.056;2023-04-23T10:57:14;7.78;;;3.90;;
45232;SDS011;30969;51.052;17.056;2023-04-23T11:02:19;5.10;;;3.22;;
45232;SDS011;30969;51.052;17.056;2023-04-23T11:07:29;4.95;;;3.47;;
45232;SDS011;30969;51.052;17.056;2023-04-23T11:12:33;6.25;;;3.60;;
45232;SDS011;30969;51.052;17.056;2023-04-23T11:23:04;5.93;;;3.55;;
45232;SDS011;30969;51.052;17.056;2023-04-23T11:28:08;5.50;;;4.00;;
45232;SDS011;30969;51.052;17.056;2023-04-23T11:33:13;4.35;;;3.38;;
45232;SDS011;30969;51.052;17.056;2023-04-23T11:38:16;6.57;;;3.35;;
45232;SDS011;30969;51.052;17.056;2023-04-23T11:43:21;5.22;;;3.20;;
45232;SDS011;30969;51.052;17.056;2023-04-23T11:48:26;5.95;;;2.70;;
45232;SDS011;30969;51.052;17.056;2023-04-23T11:53:29;3.78;;;3.03;;
45232;SDS011;30969;51.052;17.056;2023-04-23T11:58:33;4.50;;;2.42;;
45232;SDS011;30969;51.052;17.056;2023-04-23T12:03:41;4.78;;;2.92;;
45232;SDS011;30969;51.052;17.056;2023-04-23T12:08:51;10.13;;;3.30;;
45232;SDS011;30969;51.052;17.056;2023-04-23T12:13:56;5.90;;;2.83;;
45232;SDS011;30969;51.052;17.056;2023-04-23T12:19:01;6.88;;;2.50;;
45232;SDS011;30969;51.052;17.056;2023-04-23T12:24:04;6.15;;;2.90;;
45232;SDS011;30969;51.052;17.056;2023-04-23T12:29:08;2.95;;;2.42;;
45232;SDS011;30969;51.052;17.056;2023-04-23T12:34:16;4.93;;;2.72;;
45232;SDS011;30969;51.052;17.056;2023-04-23T12:39:21;5.15;;;2.60;;
45232;SDS011;30969;51.052;17.056;2023-04-23T12:44:27;4.47;;;2.80;;
45232;SDS011;30969;51.052;17.056;2023-04-23T12:49:32;8.35;;;3.45;;
45232;SDS011;30969;51.052;17.056;2023-04-23T12:54:37;11.15;;;5.20;;
45232;SDS011;30969;51.052;17.056;2023-04-23T12:59:41;9.10;;;2.90;;
45232;SDS011;30969;51.052;17.056;2023-04-23T13:04:46;8.77;;;3.45;;
45232;SDS011;30969;51.052;17.056;2023-04-23T13:09:50;4.97;;;3.35;;
45232;SDS011;30969;51.052;17.056;2023-04-23T13:14:53;7.53;;;3.88;;
45232;SDS011;30969;51.052;17.056;2023-04-23T13:19:59;8.02;;;2.55;;
45232;SDS011;30969;51.052;17.056;2023-04-23T13:25:02;2.45;;;1.70;;
45232;SDS011;30969;51.052;17.056;2023-04-23T13:30:07;6.60;;;2.10;;
45232;SDS011;30969;51.052;17.056;2023-04-23T13:35:13;4.78;;;2.00;;
45232;SDS011;30969;51.052;17.056;2023-04-23T13:40:17;3.67;;;2.38;;
45232;SDS011;30969;51.052;17.056;2023-04-23T13:45:21;6.47;;;3.60;;
45232;SDS011;30969;51.052;17.056;2023-04-23T13:50:26;5.90;;;2.83;;
45232;SDS011;30969;51.052;17.056;2023-04-23T13:55:30;3.95;;;2.78;;
45232;SDS011;30969;51.052;17.056;2023-04-23T14:00:34;5.40;;;3.13;;
45232;SDS011;30969;51.052;17.056;2023-04-23T14:05:39;6.55;;;2.90;;
45232;SDS011;30969;51.052;17.056;2023-04-23T14:10:42;6.32;;;2.85;;
45232;SDS011;30969;51.052;17.056;2023-04-23T14:15:46;4.57;;;3.00;;
45232;SDS011;30969;51.052;17.056;2023-04-23T14:20:50;7.05;;;3.15;;
45232;SDS011;30969;51.052;17.056;2023-04-23T14:25:57;5.38;;;3.00;;
45232;SDS011;30969;51.052;17.056;2023-04-23T14:31:05;3.88;;;2.50;;
45232;SDS011;30969;51.052;17.056;2023-04-23T14:36:10;5.40;;;2.80;;
45232;SDS011;30969;51.052;17.056;2023-04-23T14:41:13;4.38;;;2.78;;
45232;SDS011;30969;51.052;17.056;2023-04-23T14:46:17;6.60;;;2.97;;
45232;SDS011;30969;51.052;17.056;2023-04-23T14:51:22;4.82;;;3.22;;
45232;SDS011;30969;51.052;17.056;2023-04-23T14:56:25;5.85;;;3.30;;
45232;SDS011;30969;51.052;17.056;2023-04-23T15:01:29;4.20;;;2.58;;
45232;SDS011;30969;51.052;17.056;2023-04-23T15:06:34;4.25;;;2.28;;
45232;SDS011;30969;51.052;17.056;2023-04-23T15:11:38;4.00;;;2.40;;
45232;SDS011;30969;51.052;17.056;2023-04-23T15:16:43;4.10;;;2.53;;
45232;SDS011;30969;51.052;17.056;2023-04-23T15:21:51;3.83;;;2.20;;
45232;SDS011;30969;51.052;17.056;2023-04-23T15:26:55;4.38;;;2.65;;
45232;SDS011;30969;51.052;17.056;2023-04-23T15:32:00;4.40;;;2.75;;
45232;SDS011;30969;51.052;17.056;2023-04-23T15:37:04;8.32;;;3.00;;
45232;SDS011;30969;51.052;17.056;2023-04-23T15:42:08;6.63;;;3.00;;
45232;SDS011;30969;51.052;17.056;2023-04-23T15:47:12;4.25;;;2.67;;
45232;SDS011;30969;51.052;17.056;2023-04-23T15:52:16;4.18;;;2.90;;
45232;SDS011;30969;51.052;17.056;2023-04-23T15:57:20;6.95;;;3.78;;
45232;SDS011;30969;51.052;17.056;2023-04-23T16:02:24;6.07;;;4.00;;
45232;SDS011;30969;51.052;17.056;2023-04-23T16:07:29;6.35;;;4.57;;
45232;SDS011;30969;51.052;17.056;2023-04-23T16:12:33;7.40;;;4.00;;
45232;SDS011;30969;51.052;17.056;2023-04-23T16:17:37;7.32;;;4.35;;
45232;SDS011;30969;51.052;17.056;2023-04-23T16:22:42;7.07;;;4.57;;
45232;SDS011;30969;51.052;17.056;2023-04-23T16:27:46;7.80;;;4.18;;
45232;SDS011;30969;51.052;17.056;2023-04-23T16:32:50;6.43;;;4.57;;
45232;SDS011;30969;51.052;17.056;2023-04-23T16:37:55;8.38;;;4.63;;
45232;SDS011;30969;51.052;17.056;2023-04-23T16:42:59;6.47;;;4.60;;
45232;SDS011;30969;51.052;17.056;2023-04-23T16:48:02;5.20;;;3.85;;
45232;SDS011;30969;51.052;17.056;2023-04-23T16:53:07;6.82;;;4.10;;
45232;SDS011;30969;51.052;17.056;2023-04-23T16:58:11;5.93;;;4.28;;
45232;SDS011;30969;51.052;17.056;2023-04-23T17:03:15;7.68;;;4.60;;
45232;SDS011;30969;51.052;17.056;2023-04-23T17:08:20;6.28;;;4.55;;
45232;SDS011;30969;51.052;17.056;2023-04-23T17:13:25;5.22;;;3.63;;
45232;SDS011;30969;51.052;17.056;2023-04-23T17:18:29;5.55;;;3.75;;
45232;SDS011;30969;51.052;17.056;2023-04-23T17:23:34;5.72;;;3.30;;
45232;SDS011;30969;51.052;17.056;2023-04-23T17:28:38;5.13;;;3.15;;
45232;SDS011;30969;51.052;17.056;2023-04-23T17:33:42;5.07;;;3.00;;
45232;SDS011;30969;51.052;17.056;2023-04-23T17:38:49;4.50;;;2.70;;
45232;SDS011;30969;51.052;17.056;2023-04-23T17:43:53;3.67;;;2.85;;
45232;SDS011;30969;51.052;17.056;2023-04-23T17:48:57;3.35;;;2.60;;
45232;SDS011;30969;51.052;17.056;2023-04-23T17:54:01;4.55;;;3.10;;
45232;SDS011;30969;51.052;17.056;2023-04-23T17:59:05;4.18;;;2.88;;
45232;SDS011;30969;51.052;17.056;2023-04-23T18:04:09;6.35;;;3.55;;
45232;SDS011;30969;51.052;17.056;2023-04-23T18:09:14;8.20;;;4.50;;
45232;SDS011;30969;51.052;17.056;2023-04-23T18:14:17;6.60;;;3.53;;
45232;SDS011;30969;51.052;17.056;2023-04-23T18:19:21;4.68;;;2.70;;
45232;SDS011;30969;51.052;17.056;2023-04-23T18:24:26;4.88;;;2.63;;
45232;SDS011;30969;51.052;17.056;2023-04-23T18:29:29;5.60;;;2.80;;
45232;SDS011;30969;51.052;17.056;2023-04-23T18:34:36;4.72;;;3.05;;
45232;SDS011;30969;51.052;17.056;2023-04-23T18:39:42;5.35;;;3.15;;
45232;SDS011;30969;51.052;17.056;2023-04-23T18:44:46;4.60;;;2.80;;
45232;SDS011;30969;51.052;17.056;2023-04-23T18:49:51;6.80;;;3.92;;
45232;SDS011;30969;51.052;17.056;2023-04-23T18:54:56;6.10;;;3.25;;
45232;SDS011;30969;51.052;17.056;2023-04-23T19:00:00;6.18;;;3.20;;
45232;SDS011;30969;51.052;17.056;2023-04-23T19:05:04;8.45;;;3.53;;
45232;SDS011;30969;51.052;17.056;2023-04-23T19:10:10;6.70;;;3.30;;
45232;SDS011;30969;51.052;17.056;2023-04-23T19:15:14;4.20;;;2.97;;
45232;SDS011;30969;51.052;17.056;2023-04-23T19:20:18;6.25;;;3.28;;
45232;SDS011;30969;51.052;17.056;2023-04-23T19:25:24;4.93;;;2.80;;
45232;SDS011;30969;51.052;17.056;2023-04-23T19:30:27;6.22;;;3.67;;
45232;SDS011;30969;51.052;17.056;2023-04-23T19:35:31;5.85;;;4.07;;
45232;SDS011;30969;51.052;17.056;2023-04-23T19:40:35;7.93;;;4.50;;
45232;SDS011;30969;51.052;17.056;2023-04-23T19:45:40;8.50;;;4.93;;
45232;SDS011;30969;51.052;17.056;2023-04-23T19:50:44;8.00;;;4.95;;
45232;SDS011;30969;51.052;17.056;2023-04-23T19:55:51;10.10;;;5.78;;
45232;SDS011;30969;51.052;17.056;2023-04-23T20:00:54;11.20;;;7.53;;
45232;SDS011;30969;51.052;17.056;2023-04-23T20:05:57;11.57;;;8.57;;
45232;SDS011;30969;51.052;17.056;2023-04-23T20:11:03;13.13;;;8.38;;
45232;SDS011;30969;51.052;17.056;2023-04-23T20:16:06;14.52;;;8.90;;
45232;SDS011;30969;51.052;17.056;2023-04-23T20:21:13;29.40;;;9.05;;
45232;SDS011;30969;51.052;17.056;2023-04-23T20:26:18;12.48;;;8.48;;
45232;SDS011;30969;51.052;17.056;2023-04-23T20:31:22;13.75;;;7.90;;
45232;SDS011;30969;51.052;17.056;2023-04-23T20:36:25;15.55;;;7.60;;
45232;SDS011;30969;51.052;17.056;2023-04-23T20:41:33;38.35;;;22.27;;
45232;SDS011;30969;51.052;17.056;2023-04-23T20:46:37;77.45;;;39.58;;
45232;SDS011;30969;51.052;17.056;2023-04-23T20:51:41;54.97;;;28.60;;
45232;SDS011;30969;51.052;17.056;2023-04-23T20:56:45;31.20;;;17.48;;
45232;SDS011;30969;51.052;17.056;2023-04-23T21:01:54;19.63;;;13.50;;
45232;SDS011;30969;51.052;17.056;2023-04-23T21:06:58;18.10;;;10.50;;
45232;SDS011;30969;51.052;17.056;2023-04-23T21:12:03;24.00;;;12.75;;
45232;SDS011;30969;51.052;17.056;2023-04-23T21:17:07;14.13;;;10.32;;
45232;SDS011;30969;51.052;17.056;2023-04-23T21:22:11;14.77;;;11.02;;
45232;SDS011;30969;51.052;17.056;2023-04-23T21:27:16;16.30;;;10.52;;
45232;SDS011;30969;51.052;17.056;2023-04-23T21:32:22;16.42;;;11.85;;
45232;SDS011;30969;51.052;17.056;2023-04-23T21:37:26;13.45;;;10.13;;
45232;SDS011;30969;51.052;17.056;2023-04-23T21:42:31;13.30;;;8.45;;
45232;SDS011;30969;51.052;17.056;2023-04-23T21:47:35;13.73;;;9.18;;
45232;SDS011;30969;51.052;17.056;2023-04-23T21:52:40;12.70;;;8.90;;
45232;SDS011;30969;51.052;17.056;2023-04-23T21:57:45;15.55;;;9.18;;
45232;SDS011;30969;51.052;17.056;2023-04-23T22:02:49;15.15;;;9.32;;
45232;SDS011;30969;51.052;17.056;2023-04-23T22:07:56;14.25;;;9.57;;
45232;SDS011;30969;51.052;17.056;2023-04-23T22:13:01;15.70;;;10.07;;
45232;SDS011;30969;51.052;17.056;2023-04-23T22:18:04;15.80;;;11.57;;
45232;SDS011;30969;51.052;17.056;2023-04-23T22:23:08;15.32;;;10.70;;
45232;SDS011;30969;51.052;17.056;2023-04-23T22:28:13;13.45;;;10.02;;
